sensor_id;sensor_type;location;lat;lon;timestamp;pressure;altitude;pressure_sealevel;temperature;humidity
48614;BME280;34408;51.426;5.444;2022-07-22T00:01:09;102081.34;;;20.04;59.52
48614;BME280;34408;51.426;5.444;2022-07-22T00:03:38;102078.03;;;20.02;59.45
48614;BME280;34408;51.426;5.444;2022-07-22T00:06:06;102081.59;;;20.03;59.57
48614;BME280;34408;51.426;5.444;2022-07-22T00:08:34;102088.13;;;20.02;59.41
48614;BME280;34408;51.426;5.444;2022-07-22T00:11:01;102089.19;;;20.01;59.35
48614;BME280;34408;51.426;5.444;2022-07-22T00:13:29;102078.53;;;19.99;59.33
48614;BME280;34408;51.426;5.444;2022-07-22T00:15:57;102070.88;;;19.96;59.36
48614;BME280;34408;51.426;5.444;2022-07-22T00:18:25;102084.00;;;19.99;59.33
48614;BME280;34408;51.426;5.444;2022-07-22T00:20:55;102081.53;;;19.98;59.42
48614;BME280;34408;51.426;5.444;2022-07-22T00:23:23;102078.22;;;19.96;59.30
48614;BME280;34408;51.426;5.444;2022-07-22T00:25:52;102079.56;;;19.93;59.25
48614;BME280;34408;51.426;5.444;2022-07-22T00:28:20;102087.75;;;19.93;59.53
48614;BME280;34408;51.426;5.444;2022-07-22T00:30:48;102085.00;;;19.93;59.50
48614;BME280;34408;51.426;5.444;2022-07-22T00:33:19;102083.63;;;19.91;59.42
48614;BME280;34408;51.426;5.444;2022-07-22T00:35:47;102078.16;;;19.91;59.52
48614;BME280;34408;51.426;5.444;2022-07-22T00:38:16;102080.06;;;19.90;59.39
48614;BME280;34408;51.426;5.444;2022-07-22T00:40:44;102087.44;;;19.90;59.34
48614;BME280;34408;51.426;5.444;2022-07-22T00:43:12;102081.16;;;19.89;59.36
48614;BME280;34408;51.426;5.444;2022-07-22T00:45:40;102074.88;;;19.89;59.24
48614;BME280;34408;51.426;5.444;2022-07-22T00:48:08;102075.69;;;19.89;59.11
48614;BME280;34408;51.426;5.444;2022-07-22T00:50:36;102069.66;;;19.87;59.36
48614;BME280;34408;51.426;5.444;2022-07-22T00:53:04;102068.84;;;19.87;59.21
48614;BME280;34408;51.426;5.444;2022-07-22T00:55:34;102065.28;;;19.86;59.55
48614;BME280;34408;51.426;5.444;2022-07-22T00:58:03;102067.19;;;19.86;59.32
48614;BME280;34408;51.426;5.444;2022-07-22T01:00:33;102064.47;;;19.86;59.17
48614;BME280;34408;51.426;5.444;2022-07-22T01:03:01;102064.72;;;19.84;59.41
48614;BME280;34408;51.426;5.444;2022-07-22T01:05:29;102036.41;;;19.68;59.29
48614;BME280;34408;51.426;5.444;2022-07-22T01:07:56;102063.06;;;19.83;59.37
48614;BME280;34408;51.426;5.444;2022-07-22T01:10:24;102054.88;;;19.83;59.21
48614;BME280;34408;51.426;5.444;2022-07-22T01:12:53;102058.69;;;19.82;59.12
48614;BME280;34408;51.426;5.444;2022-07-22T01:15:21;102046.94;;;19.81;59.18
48614;BME280;34408;51.426;5.444;2022-07-22T01:17:49;102061.41;;;19.82;59.10
48614;BME280;34408;51.426;5.444;2022-07-22T01:20:18;102052.41;;;19.81;59.12
48614;BME280;34408;51.426;5.444;2022-07-22T01:22:46;102057.03;;;19.81;59.18
48614;BME280;34408;51.426;5.444;2022-07-22T01:25:14;102052.66;;;19.80;59.30
48614;BME280;34408;51.426;5.444;2022-07-22T01:27:42;102049.94;;;19.80;59.05
48614;BME280;34408;51.426;5.444;2022-07-22T01:30:10;102061.91;;;19.79;59.28
48614;BME280;34408;51.426;5.444;2022-07-22T01:32:38;102053.16;;;19.77;59.01
48614;BME280;34408;51.426;5.444;2022-07-22T01:35:06;102054.81;;;19.78;59.27
48614;BME280;34408;51.426;5.444;2022-07-22T01:37:36;102054.00;;;19.77;59.29
48614;BME280;34408;51.426;5.444;2022-07-22T01:40:04;102059.69;;;19.76;59.32
48614;BME280;34408;51.426;5.444;2022-07-22T01:42:32;102058.06;;;19.75;59.25
48614;BME280;34408;51.426;5.444;2022-07-22T01:45:00;102062.44;;;19.76;59.28
48614;BME280;34408;51.426;5.444;2022-07-22T01:47:27;102059.94;;;19.74;59.28
48614;BME280;34408;51.426;5.444;2022-07-22T01:49:55;102056.66;;;19.72;59.30
48614;BME280;34408;51.426;5.444;2022-07-22T01:52:23;102062.94;;;19.73;59.58
48614;BME280;34408;51.426;5.444;2022-07-22T01:54:52;102061.28;;;19.72;59.31
48614;BME280;34408;51.426;5.444;2022-07-22T01:57:20;102062.38;;;19.71;59.60
48614;BME280;34408;51.426;5.444;2022-07-22T01:59:47;102060.72;;;19.70;59.45
48614;BME280;34408;51.426;5.444;2022-07-22T02:02:15;102060.47;;;19.71;59.11
48614;BME280;34408;51.426;5.444;2022-07-22T02:04:43;102062.38;;;19.71;59.34
48614;BME280;34408;51.426;5.444;2022-07-22T02:07:11;102062.38;;;19.71;59.18
48614;BME280;34408;51.426;5.444;2022-07-22T02:09:39;102051.69;;;19.69;59.18
48614;BME280;34408;51.426;5.444;2022-07-22T02:12:08;102053.59;;;19.69;59.24
48614;BME280;34408;51.426;5.444;2022-07-22T02:14:36;102051.69;;;19.69;59.29
48614;BME280;34408;51.426;5.444;2022-07-22T02:17:03;102050.06;;;19.68;59.14
48614;BME280;34408;51.426;5.444;2022-07-22T02:19:31;102046.50;;;19.68;59.06
48614;BME280;34408;51.426;5.444;2022-07-22T02:21:59;102051.97;;;19.68;59.18
48614;BME280;34408;51.426;5.444;2022-07-22T02:24:27;102051.38;;;19.66;59.23
48614;BME280;34408;51.426;5.444;2022-07-22T02:26:55;102045.09;;;19.65;59.02
48614;BME280;34408;51.426;5.444;2022-07-22T02:29:24;102052.47;;;19.65;59.05
48614;BME280;34408;51.426;5.444;2022-07-22T02:31:52;102046.19;;;19.64;59.12
48614;BME280;34408;51.426;5.444;2022-07-22T02:34:20;102054.38;;;19.64;59.11
48614;BME280;34408;51.426;5.444;2022-07-22T02:36:48;102045.88;;;19.61;59.19
48614;BME280;34408;51.426;5.444;2022-07-22T02:39:16;102050.81;;;19.64;59.19
48614;BME280;34408;51.426;5.444;2022-07-22T02:41:44;102042.63;;;19.64;59.15
48614;BME280;34408;51.426;5.444;2022-07-22T02:44:12;102047.25;;;19.63;59.24
48614;BME280;34408;51.426;5.444;2022-07-22T02:46:41;102039.34;;;19.62;59.16
48614;BME280;34408;51.426;5.444;2022-07-22T02:49:08;102040.97;;;19.63;59.23
48614;BME280;34408;51.426;5.444;2022-07-22T02:51:36;102033.31;;;19.60;59.18
48614;BME280;34408;51.426;5.444;2022-07-22T02:54:04;102034.94;;;19.61;59.11
48614;BME280;34408;51.426;5.444;2022-07-22T02:56:32;102034.94;;;19.61;59.19
48614;BME280;34408;51.426;5.444;2022-07-22T02:58:59;102027.84;;;19.60;59.30
48614;BME280;34408;51.426;5.444;2022-07-22T03:01:27;102020.50;;;19.60;59.13
48614;BME280;34408;51.426;5.444;2022-07-22T03:03:58;102022.41;;;19.60;59.20
48614;BME280;34408;51.426;5.444;2022-07-22T03:06:25;102020.75;;;19.59;59.13
48614;BME280;34408;51.426;5.444;2022-07-22T03:08:53;102023.47;;;19.59;59.25
48614;BME280;34408;51.426;5.444;2022-07-22T03:11:22;102020.75;;;19.59;59.38
48614;BME280;34408;51.426;5.444;2022-07-22T03:13:50;102024.56;;;19.58;59.29
48614;BME280;34408;51.426;5.444;2022-07-22T03:16:17;102023.72;;;19.57;59.29
48614;BME280;34408;51.426;5.444;2022-07-22T03:18:45;102023.72;;;19.57;59.38
48614;BME280;34408;51.426;5.444;2022-07-22T03:21:14;102018.53;;;19.56;59.16
48614;BME280;34408;51.426;5.444;2022-07-22T03:23:42;102026.72;;;19.56;59.41
48614;BME280;34408;51.426;5.444;2022-07-22T03:26:10;102021.50;;;19.54;59.39
48614;BME280;34408;51.426;5.444;2022-07-22T03:28:37;102021.25;;;19.56;59.24
48614;BME280;34408;51.426;5.444;2022-07-22T03:31:06;102022.34;;;19.55;59.22
48614;BME280;34408;51.426;5.444;2022-07-22T03:33:33;102017.97;;;19.54;59.53
48614;BME280;34408;51.426;5.444;2022-07-22T03:36:01;102013.56;;;19.53;59.22
48614;BME280;34408;51.426;5.444;2022-07-22T03:38:31;102021.75;;;19.53;59.37
48614;BME280;34408;51.426;5.444;2022-07-22T03:40:58;102024.50;;;19.53;59.19
48614;BME280;34408;51.426;5.444;2022-07-22T03:43:26;102019.50;;;19.49;59.20
48614;BME280;34408;51.426;5.444;2022-07-22T03:45:54;102028.50;;;19.50;59.26
48614;BME280;34408;51.426;5.444;2022-07-22T03:48:22;102012.84;;;19.40;59.12
48614;BME280;34408;51.426;5.444;2022-07-22T03:50:50;102027.13;;;19.47;59.31
48614;BME280;34408;51.426;5.444;2022-07-22T03:53:18;102029.00;;;19.47;59.44
48614;BME280;34408;51.426;5.444;2022-07-22T03:55:48;102034.47;;;19.47;59.29
48614;BME280;34408;51.426;5.444;2022-07-22T03:58:17;102029.84;;;19.47;59.33
48614;BME280;34408;51.426;5.444;2022-07-22T04:00:45;102028.19;;;19.46;59.51
48614;BME280;34408;51.426;5.444;2022-07-22T04:03:13;102033.91;;;19.45;59.59
48614;BME280;34408;51.426;5.444;2022-07-22T04:05:41;102043.97;;;19.44;59.61
48614;BME280;34408;51.426;5.444;2022-07-22T04:08:09;102041.25;;;19.44;59.78
48614;BME280;34408;51.426;5.444;2022-07-22T04:10:36;102033.31;;;19.43;59.51
48614;BME280;34408;51.426;5.444;2022-07-22T04:13:05;102037.69;;;19.44;59.81
48614;BME280;34408;51.426;5.444;2022-07-22T04:15:33;102040.69;;;19.42;59.73
48614;BME280;34408;51.426;5.444;2022-07-22T04:18:01;102038.78;;;19.43;59.80
48614;BME280;34408;51.426;5.444;2022-07-22T04:20:29;102036.31;;;19.41;59.89
48614;BME280;34408;51.426;5.444;2022-07-22T04:22:57;102039.03;;;19.41;59.81
48614;BME280;34408;51.426;5.444;2022-07-22T04:25:25;102041.75;;;19.41;59.66
48614;BME280;34408;51.426;5.444;2022-07-22T04:27:52;102045.56;;;19.40;59.59
48614;BME280;34408;51.426;5.444;2022-07-22T04:30:22;102038.47;;;19.39;59.80
48614;BME280;34408;51.426;5.444;2022-07-22T04:32:50;102043.66;;;19.41;59.76
48614;BME280;34408;51.426;5.444;2022-07-22T04:35:18;102029.38;;;19.34;59.66
48614;BME280;34408;51.426;5.444;2022-07-22T04:37:46;102033.25;;;19.38;59.90
48614;BME280;34408;51.426;5.444;2022-07-22T04:40:13;102041.44;;;19.38;59.78
48614;BME280;34408;51.426;5.444;2022-07-22T04:42:41;102034.31;;;19.37;59.82
48614;BME280;34408;51.426;5.444;2022-07-22T04:45:09;102026.16;;;19.37;59.85
48614;BME280;34408;51.426;5.444;2022-07-22T04:47:39;102036.81;;;19.38;59.92
48614;BME280;34408;51.426;5.444;2022-07-22T04:50:08;102037.63;;;19.39;59.64
48614;BME280;34408;51.426;5.444;2022-07-22T04:52:36;102023.44;;;19.37;59.77
48614;BME280;34408;51.426;5.444;2022-07-22T04:55:04;102020.69;;;19.37;59.75
48614;BME280;34408;51.426;5.444;2022-07-22T04:57:34;102022.59;;;19.36;59.77
48614;BME280;34408;51.426;5.444;2022-07-22T05:00:03;102022.34;;;19.38;59.69
48614;BME280;34408;51.426;5.444;2022-07-22T05:02:31;102017.97;;;19.37;59.82
48614;BME280;34408;51.426;5.444;2022-07-22T05:05:00;102017.97;;;19.37;59.71
48614;BME280;34408;51.426;5.444;2022-07-22T05:07:28;102019.06;;;19.36;59.85
48614;BME280;34408;51.426;5.444;2022-07-22T05:09:55;102020.13;;;19.35;59.58
48614;BME280;34408;51.426;5.444;2022-07-22T05:12:23;102016.56;;;19.34;59.66
48614;BME280;34408;51.426;5.444;2022-07-22T05:14:51;102012.19;;;19.33;59.91
48614;BME280;34408;51.426;5.444;2022-07-22T05:17:19;102009.47;;;19.33;59.82
48614;BME280;34408;51.426;5.444;2022-07-22T05:19:46;102016.81;;;19.33;59.85
48614;BME280;34408;51.426;5.444;2022-07-22T05:22:15;102013.28;;;19.32;59.75
48614;BME280;34408;51.426;5.444;2022-07-22T05:24:43;102009.97;;;19.30;59.74
48614;BME280;34408;51.426;5.444;2022-07-22T05:27:11;102014.94;;;19.33;59.66
48614;BME280;34408;51.426;5.444;2022-07-22T05:29:39;102011.06;;;19.29;59.71
48614;BME280;34408;51.426;5.444;2022-07-22T05:32:07;102008.66;;;19.33;59.72
48614;BME280;34408;51.426;5.444;2022-07-22T05:34:34;102005.91;;;19.33;59.74
48614;BME280;34408;51.426;5.444;2022-07-22T05:37:02;102003.19;;;19.33;59.61
48614;BME280;34408;51.426;5.444;2022-07-22T05:39:31;102011.38;;;19.33;59.56
48614;BME280;34408;51.426;5.444;2022-07-22T05:41:59;102018.72;;;19.32;59.63
48614;BME280;34408;51.426;5.444;2022-07-22T05:44:27;102015.19;;;19.32;59.37
48614;BME280;34408;51.426;5.444;2022-07-22T05:46:55;102021.44;;;19.32;59.67
48614;BME280;34408;51.426;5.444;2022-07-22T05:49:22;102015.19;;;19.32;59.70
48614;BME280;34408;51.426;5.444;2022-07-22T05:51:53;102023.94;;;19.34;59.50
48614;BME280;34408;51.426;5.444;2022-07-22T05:54:21;102023.09;;;19.33;59.25
48614;BME280;34408;51.426;5.444;2022-07-22T05:56:50;102021.78;;;19.36;59.42
48614;BME280;34408;51.426;5.444;2022-07-22T05:59:17;102026.16;;;19.37;59.34
48614;BME280;34408;51.426;5.444;2022-07-22T06:01:45;102026.16;;;19.37;59.40
48614;BME280;34408;51.426;5.444;2022-07-22T06:04:13;102027.56;;;19.39;59.34
48614;BME280;34408;51.426;5.444;2022-07-22T06:06:41;102022.91;;;19.40;59.47
48614;BME280;34408;51.426;5.444;2022-07-22T06:09:09;102027.56;;;19.39;59.47
48614;BME280;34408;51.426;5.444;2022-07-22T06:11:37;102032.75;;;19.41;59.33
48614;BME280;34408;51.426;5.444;2022-07-22T06:14:06;102026.47;;;19.40;59.32
48614;BME280;34408;51.426;5.444;2022-07-22T06:16:34;102023.75;;;19.40;59.25
48614;BME280;34408;51.426;5.444;2022-07-22T06:19:02;102019.31;;;19.34;59.11
48614;BME280;34408;51.426;5.444;2022-07-22T06:21:30;102026.78;;;19.44;59.18
48614;BME280;34408;51.426;5.444;2022-07-22T06:23:58;102022.16;;;19.44;59.15
48614;BME280;34408;51.426;5.444;2022-07-22T06:26:26;102028.44;;;19.45;58.97
48614;BME280;34408;51.426;5.444;2022-07-22T06:28:53;102023.81;;;19.45;58.97
48614;BME280;34408;51.426;5.444;2022-07-22T06:31:23;102028.44;;;19.45;58.72
48614;BME280;34408;51.426;5.444;2022-07-22T06:33:51;102010.94;;;19.41;58.79
48614;BME280;34408;51.426;5.444;2022-07-22T06:36:19;102024.38;;;19.47;58.72
48614;BME280;34408;51.426;5.444;2022-07-22T06:38:47;101998.38;;;19.40;58.73
48614;BME280;34408;51.426;5.444;2022-07-22T06:41:16;102009.44;;;19.50;58.71
48614;BME280;34408;51.426;5.444;2022-07-22T06:43:46;102017.44;;;19.57;58.68
48614;BME280;34408;51.426;5.444;2022-07-22T06:46:14;102001.03;;;19.52;58.83
48614;BME280;34408;51.426;5.444;2022-07-22T06:48:44;102015.59;;;19.62;58.62
48614;BME280;34408;51.426;5.444;2022-07-22T06:51:11;102014.53;;;19.63;58.48
48614;BME280;34408;51.426;5.444;2022-07-22T06:53:39;102012.38;;;19.65;58.18
48614;BME280;34408;51.426;5.444;2022-07-22T06:56:14;102015.94;;;19.66;58.17
48614;BME280;34408;51.426;5.444;2022-07-22T06:58:43;102020.56;;;19.65;58.11
48614;BME280;34408;51.426;5.444;2022-07-22T07:01:11;102017.84;;;19.65;58.00
48614;BME280;34408;51.426;5.444;2022-07-22T07:03:38;102016.44;;;19.63;58.07
48614;BME280;34408;51.426;5.444;2022-07-22T07:06:11;102019.16;;;19.63;58.01
48614;BME280;34408;51.426;5.444;2022-07-22T07:08:40;102012.06;;;19.62;57.84
48614;BME280;34408;51.426;5.444;2022-07-22T07:11:08;102009.34;;;19.62;57.61
48614;BME280;34408;51.426;5.444;2022-07-22T07:13:36;102015.03;;;19.60;57.57
48614;BME280;34408;51.426;5.444;2022-07-22T07:16:04;102009.00;;;19.58;57.51
48614;BME280;34408;51.426;5.444;2022-07-22T07:18:32;102008.75;;;19.60;57.42
48614;BME280;34408;51.426;5.444;2022-07-22T07:21:00;102006.28;;;19.58;57.40
48614;BME280;34408;51.426;5.444;2022-07-22T07:23:29;102004.63;;;19.57;57.35
48614;BME280;34408;51.426;5.444;2022-07-22T07:25:57;102002.16;;;19.56;57.22
48614;BME280;34408;51.426;5.444;2022-07-22T07:28:25;101995.72;;;19.45;57.47
48614;BME280;34408;51.426;5.444;2022-07-22T07:30:52;102013.06;;;19.56;57.06
48614;BME280;34408;51.426;5.444;2022-07-22T07:33:20;102014.72;;;19.57;57.04
48614;BME280;34408;51.426;5.444;2022-07-22T07:35:48;102012.25;;;19.55;57.11
48614;BME280;34408;51.426;5.444;2022-07-22T07:38:16;102012.00;;;19.57;57.11
48614;BME280;34408;51.426;5.444;2022-07-22T07:40:45;102003.00;;;19.56;56.85
48614;BME280;34408;51.426;5.444;2022-07-22T07:43:13;102003.56;;;19.58;56.86
48614;BME280;34408;51.426;5.444;2022-07-22T07:45:41;101989.09;;;19.58;57.04
48614;BME280;34408;51.426;5.444;2022-07-22T07:48:09;102005.47;;;19.58;56.84
48614;BME280;34408;51.426;5.444;2022-07-22T07:50:37;101986.63;;;19.56;56.68
48614;BME280;34408;51.426;5.444;2022-07-22T07:53:05;101992.09;;;19.56;56.91
48614;BME280;34408;51.426;5.444;2022-07-22T07:55:33;102001.91;;;19.57;56.77
48614;BME280;34408;51.426;5.444;2022-07-22T07:58:06;102006.28;;;19.58;56.55
48614;BME280;34408;51.426;5.444;2022-07-22T08:00:35;102005.47;;;19.58;56.66
48614;BME280;34408;51.426;5.444;2022-07-22T08:03:03;102003.56;;;19.58;56.40
48614;BME280;34408;51.426;5.444;2022-07-22T08:05:32;101999.19;;;19.57;56.41
48614;BME280;34408;51.426;5.444;2022-07-22T08:08:01;101990.13;;;19.52;56.02
48614;BME280;34408;51.426;5.444;2022-07-22T08:10:36;101998.09;;;19.58;56.18
48614;BME280;34408;51.426;5.444;2022-07-22T08:13:24;102001.91;;;19.57;55.82
48614;BME280;34408;51.426;5.444;2022-07-22T08:15:53;101996.47;;;19.57;55.80
48614;BME280;34408;51.426;5.444;2022-07-22T08:18:21;101992.09;;;19.56;55.70
48614;BME280;34408;51.426;5.444;2022-07-22T08:20:49;101996.72;;;19.56;55.81
48614;BME280;34408;51.426;5.444;2022-07-22T08:23:17;102002.72;;;19.58;55.81
48614;BME280;34408;51.426;5.444;2022-07-22T08:25:45;102000.00;;;19.58;55.63
48614;BME280;34408;51.426;5.444;2022-07-22T08:28:13;102007.38;;;19.57;55.64
48614;BME280;34408;51.426;5.444;2022-07-22T08:30:42;102008.19;;;19.58;55.57
48614;BME280;34408;51.426;5.444;2022-07-22T08:33:10;102005.72;;;19.56;55.36
48614;BME280;34408;51.426;5.444;2022-07-22T08:35:38;101998.34;;;19.57;55.38
48614;BME280;34408;51.426;5.444;2022-07-22T08:38:05;101999.19;;;19.57;55.23
48614;BME280;34408;51.426;5.444;2022-07-22T08:40:33;101998.09;;;19.58;55.27
48614;BME280;34408;51.426;5.444;2022-07-22T08:43:01;101990.19;;;19.57;55.27
48614;BME280;34408;51.426;5.444;2022-07-22T08:45:29;101991.81;;;19.58;55.29
48614;BME280;34408;51.426;5.444;2022-07-22T08:47:59;101983.66;;;19.58;55.10
48614;BME280;34408;51.426;5.444;2022-07-22T08:50:29;101983.66;;;19.58;55.20
48614;BME280;34408;51.426;5.444;2022-07-22T08:52:57;101983.13;;;19.61;55.04
48614;BME280;34408;51.426;5.444;2022-07-22T08:55:25;101977.44;;;19.62;55.11
48614;BME280;34408;51.426;5.444;2022-07-22T08:57:53;101981.56;;;19.65;55.08
48614;BME280;34408;51.426;5.444;2022-07-22T09:00:22;101985.94;;;19.66;55.03
48614;BME280;34408;51.426;5.444;2022-07-22T09:02:50;101981.28;;;19.66;55.06
48614;BME280;34408;51.426;5.444;2022-07-22T09:05:19;101981.88;;;19.68;55.01
48614;BME280;34408;51.426;5.444;2022-07-22T09:08:07;101988.16;;;19.69;54.92
48614;BME280;34408;51.426;5.444;2022-07-22T09:10:35;101985.41;;;19.69;54.84
48614;BME280;34408;51.426;5.444;2022-07-22T09:13:05;101977.19;;;19.64;54.91
48614;BME280;34408;51.426;5.444;2022-07-22T09:15:35;101976.72;;;19.72;55.08
48614;BME280;34408;51.426;5.444;2022-07-22T09:18:04;101974.81;;;19.72;55.01
48614;BME280;34408;51.426;5.444;2022-07-22T09:20:35;101981.91;;;19.73;55.22
48614;BME280;34408;51.426;5.444;2022-07-22T09:23:10;101972.66;;;19.74;55.12
48614;BME280;34408;51.426;5.444;2022-07-22T09:25:39;101974.31;;;19.75;55.39
48614;BME280;34408;51.426;5.444;2022-07-22T09:28:13;101971.91;;;19.79;55.39
48614;BME280;34408;51.426;5.444;2022-07-22T09:30:49;101969.75;;;19.81;55.44
48614;BME280;34408;51.426;5.444;2022-07-22T09:33:20;101961.28;;;19.82;55.31
48614;BME280;34408;51.426;5.444;2022-07-22T09:35:50;101961.88;;;19.85;55.58
48614;BME280;34408;51.426;5.444;2022-07-22T09:38:19;101944.34;;;19.80;55.53
48614;BME280;34408;51.426;5.444;2022-07-22T09:40:54;101960.28;;;19.89;55.49
48614;BME280;34408;51.426;5.444;2022-07-22T09:43:22;101958.94;;;19.91;55.48
48614;BME280;34408;51.426;5.444;2022-07-22T09:45:52;101954.88;;;19.94;55.71
48614;BME280;34408;51.426;5.444;2022-07-22T09:48:21;101958.97;;;19.96;55.79
48614;BME280;34408;51.426;5.444;2022-07-22T09:50:53;101960.38;;;19.99;55.81
48614;BME280;34408;51.426;5.444;2022-07-22T09:53:23;101960.13;;;20.00;55.86
48614;BME280;34408;51.426;5.444;2022-07-22T09:55:51;101966.72;;;20.04;55.79
48614;BME280;34408;51.426;5.444;2022-07-22T09:58:19;101957.44;;;20.05;55.65
48614;BME280;34408;51.426;5.444;2022-07-22T10:00:47;101958.81;;;20.08;55.64
48614;BME280;34408;51.426;5.444;2022-07-22T10:03:17;101964.84;;;20.10;55.86
48614;BME280;34408;51.426;5.444;2022-07-22T10:05:46;101954.50;;;20.12;55.95
48614;BME280;34408;51.426;5.444;2022-07-22T10:08:16;101958.88;;;20.13;55.96
48614;BME280;34408;51.426;5.444;2022-07-22T10:10:44;101957.28;;;20.17;55.94
48614;BME280;34408;51.426;5.444;2022-07-22T10:13:12;101950.16;;;20.16;55.77
48614;BME280;34408;51.426;5.444;2022-07-22T10:15:40;101935.13;;;20.13;55.71
48614;BME280;34408;51.426;5.444;2022-07-22T10:18:14;101954.84;;;20.21;55.71
48614;BME280;34408;51.426;5.444;2022-07-22T10:20:42;101945.00;;;20.20;55.77
48614;BME280;34408;51.426;5.444;2022-07-22T10:23:11;101956.81;;;20.25;55.91
48614;BME280;34408;51.426;5.444;2022-07-22T10:25:50;101961.75;;;20.28;55.99
48614;BME280;34408;51.426;5.444;2022-07-22T10:28:24;101959.59;;;20.30;56.01
48614;BME280;34408;51.426;5.444;2022-07-22T10:30:52;101964.53;;;20.33;55.71
48614;BME280;34408;51.426;5.444;2022-07-22T10:33:21;101957.97;;;20.34;55.88
48614;BME280;34408;51.426;5.444;2022-07-22T10:35:53;101953.09;;;20.36;55.80
48614;BME280;34408;51.426;5.444;2022-07-22T10:38:22;101955.06;;;20.41;55.94
48614;BME280;34408;51.426;5.444;2022-07-22T10:40:53;101945.22;;;20.40;55.79
48614;BME280;34408;51.426;5.444;2022-07-22T10:43:24;101945.53;;;20.43;55.87
48614;BME280;34408;51.426;5.444;2022-07-22T10:45:54;101952.69;;;20.50;56.00
48614;BME280;34408;51.426;5.444;2022-07-22T10:48:24;101949.69;;;20.51;56.03
48614;BME280;34408;51.426;5.444;2022-07-22T10:51:07;101941.75;;;20.50;55.78
48614;BME280;34408;51.426;5.444;2022-07-22T10:53:52;101946.44;;;20.54;55.59
48614;BME280;34408;51.426;5.444;2022-07-22T10:56:25;101940.72;;;20.56;55.37
48614;BME280;34408;51.426;5.444;2022-07-22T10:58:59;101856.16;;;20.02;54.98
48614;BME280;34408;51.426;5.444;2022-07-22T11:01:29;101941.78;;;20.55;54.48
48614;BME280;34408;51.426;5.444;2022-07-22T11:04:11;101927.28;;;20.49;54.17
48614;BME280;34408;51.426;5.444;2022-07-22T11:06:45;101933.84;;;20.53;54.48
48614;BME280;34408;51.426;5.444;2022-07-22T11:09:14;101929.22;;;20.54;54.91
48614;BME280;34408;51.426;5.444;2022-07-22T11:11:46;101930.59;;;20.56;54.82
48614;BME280;34408;51.426;5.444;2022-07-22T11:14:22;101928.44;;;20.58;54.67
48614;BME280;34408;51.426;5.444;2022-07-22T11:16:55;101932.56;;;20.61;54.94
48614;BME280;34408;51.426;5.444;2022-07-22T11:19:26;101930.13;;;20.64;54.68
48614;BME280;34408;51.426;5.444;2022-07-22T11:21:56;101917.28;;;20.65;54.51
48614;BME280;34408;51.426;5.444;2022-07-22T11:24:25;101921.09;;;20.64;54.66
48614;BME280;34408;51.426;5.444;2022-07-22T11:26:56;101923.91;;;20.74;54.07
48614;BME280;34408;51.426;5.444;2022-07-22T11:29:32;101924.16;;;20.72;53.57
48614;BME280;34408;51.426;5.444;2022-07-22T11:32:03;101924.16;;;20.72;53.71
48614;BME280;34408;51.426;5.444;2022-07-22T11:34:31;101910.75;;;20.71;53.68
48614;BME280;34408;51.426;5.444;2022-07-22T11:36:59;101907.78;;;20.72;53.96
48614;BME280;34408;51.426;5.444;2022-07-22T11:39:29;101903.41;;;20.76;54.22
48614;BME280;34408;51.426;5.444;2022-07-22T11:41:59;101891.97;;;20.79;54.09
48614;BME280;34408;51.426;5.444;2022-07-22T11:44:28;101893.31;;;20.82;54.02
48614;BME280;34408;51.426;5.444;2022-07-22T11:46:57;101888.41;;;20.84;53.73
48614;BME280;34408;51.426;5.444;2022-07-22T11:49:27;101880.22;;;20.89;54.05
48614;BME280;34408;51.426;5.444;2022-07-22T11:51:55;101870.69;;;20.92;53.90
48614;BME280;34408;51.426;5.444;2022-07-22T11:54:23;101870.41;;;20.93;53.30
48614;BME280;34408;51.426;5.444;2022-07-22T11:56:51;101874.78;;;20.94;53.86
48614;BME280;34408;51.426;5.444;2022-07-22T11:59:24;101870.16;;;20.95;53.66
48614;BME280;34408;51.426;5.444;2022-07-22T12:01:54;101866.88;;;20.98;53.82
48614;BME280;34408;51.426;5.444;2022-07-22T12:04:23;101864.44;;;21.01;53.70
48614;BME280;34408;51.426;5.444;2022-07-22T12:06:53;101854.88;;;21.04;53.08
48614;BME280;34408;51.426;5.444;2022-07-22T12:09:23;101853.53;;;21.06;53.63
48614;BME280;34408;51.426;5.444;2022-07-22T12:11:53;101859.28;;;21.10;53.96
48614;BME280;34408;51.426;5.444;2022-07-22T12:14:23;101847.00;;;21.18;53.57
48614;BME280;34408;51.426;5.444;2022-07-22T12:16:58;101844.56;;;21.21;54.10
48614;BME280;34408;51.426;5.444;2022-07-22T12:19:28;101854.72;;;21.26;54.09
48614;BME280;34408;51.426;5.444;2022-07-22T12:22:00;101839.41;;;21.25;53.85
48614;BME280;34408;51.426;5.444;2022-07-22T12:24:30;101849.00;;;21.32;53.43
48614;BME280;34408;51.426;5.444;2022-07-22T12:26:59;101837.53;;;21.35;53.58
48614;BME280;34408;51.426;5.444;2022-07-22T12:29:29;101847.09;;;21.38;53.25
48614;BME280;34408;51.426;5.444;2022-07-22T12:32:00;101849.03;;;21.42;53.05
48614;BME280;34408;51.426;5.444;2022-07-22T12:34:36;101846.56;;;21.41;52.64
48614;BME280;34408;51.426;5.444;2022-07-22T12:37:16;101853.41;;;21.43;53.00
48614;BME280;34408;51.426;5.444;2022-07-22T12:40:00;101837.00;;;21.43;53.42
48614;BME280;34408;51.426;5.444;2022-07-22T12:42:31;101849.59;;;21.50;53.38
48614;BME280;34408;51.426;5.444;2022-07-22T12:45:02;101845.22;;;21.54;53.18
48614;BME280;34408;51.426;5.444;2022-07-22T12:47:47;101850.97;;;21.57;53.58
48614;BME280;34408;51.426;5.444;2022-07-22T12:50:21;101855.63;;;21.57;52.43
48614;BME280;34408;51.426;5.444;2022-07-22T12:52:51;101844.41;;;21.53;51.87
48614;BME280;34408;51.426;5.444;2022-07-22T12:55:41;101842.75;;;21.57;52.77
48614;BME280;34408;51.426;5.444;2022-07-22T12:58:10;101836.75;;;21.60;52.84
48614;BME280;34408;51.426;5.444;2022-07-22T13:00:41;101832.91;;;21.61;52.44